sensor_id;sensor_type;location;lat;lon;timestamp;temperature;humidity
26583;DHT22;14230;45.382;10.998;2022-11-03T00:01:46;14.80;99.90
26583;DHT22;14230;45.382;10.998;2022-11-03T00:04:15;14.80;99.90
26583;DHT22;14230;45.382;10.998;2022-11-03T00:06:45;14.80;99.90
26583;DHT22;14230;45.382;10.998;2022-11-03T00:09:16;14.80;99.90
26583;DHT22;14230;45.382;10.998;2022-11-03T00:11:45;14.80;99.90
26583;DHT22;14230;45.382;10.998;2022-11-03T00:14:13;14.70;99.90
26583;DHT22;14230;45.382;10.998;2022-11-03T00:16:41;14.60;99.90
26583;DHT22;14230;45.382;10.998;2022-11-03T00:19:10;14.60;99.90
26583;DHT22;14230;45.382;10.998;2022-11-03T00:21:37;14.60;99.90
26583;DHT22;14230;45.382;10.998;2022-11-03T00:24:05;14.70;99.90
26583;DHT22;14230;45.382;10.998;2022-11-03T00:26:33;14.60;99.90
26583;DHT22;14230;45.382;10.998;2022-11-03T00:29:10;14.60;99.90
26583;DHT22;14230;45.382;10.998;2022-11-03T00:31:39;14.60;99.90
26583;DHT22;14230;45.382;10.998;2022-11-03T00:34:08;14.70;99.90
26583;DHT22;14230;45.382;10.998;2022-11-03T00:36:37;14.70;99.90
26583;DHT22;14230;45.382;10.998;2022-11-03T00:39:06;14.60;99.90
26583;DHT22;14230;45.382;10.998;2022-11-03T00:41:33;14.70;99.90
26583;DHT22;14230;45.382;10.998;2022-11-03T00:44:01;14.60;99.90
26583;DHT22;14230;45.382;10.998;2022-11-03T00:46:28;14.60;99.90
26583;DHT22;14230;45.382;10.998;2022-11-03T00:49:03;14.70;99.90
26583;DHT22;14230;45.382;10.998;2022-11-03T00:51:31;14.70;99.90
26583;DHT22;14230;45.382;10.998;2022-11-03T00:54:02;14.70;99.90
26583;DHT22;14230;45.382;10.998;2022-11-03T00:56:36;14.70;99.90
26583;DHT22;14230;45.382;10.998;2022-11-03T00:59:06;14.70;99.90
26583;DHT22;14230;45.382;10.998;2022-11-03T01:01:41;14.70;99.90
26583;DHT22;14230;45.382;10.998;2022-11-03T01:04:15;14.70;99.90
26583;DHT22;14230;45.382;10.998;2022-11-03T01:07:03;14.70;99.90
26583;DHT22;14230;45.382;10.998;2022-11-03T01:12:09;14.70;99.90
26583;DHT22;14230;45.382;10.998;2022-11-03T01:14:41;14.70;99.90
26583;DHT22;14230;45.382;10.998;2022-11-03T01:17:17;14.70;99.90
26583;DHT22;14230;45.382;10.998;2022-11-03T01:19:45;14.70;99.90
26583;DHT22;14230;45.382;10.998;2022-11-03T01:22:13;14.70;99.90
26583;DHT22;14230;45.382;10.998;2022-11-03T01:24:41;14.70;99.90
26583;DHT22;14230;45.382;10.998;2022-11-03T01:27:11;14.70;99.90
26583;DHT22;14230;45.382;10.998;2022-11-03T01:29:40;14.70;99.90
26583;DHT22;14230;45.382;10.998;2022-11-03T01:32:08;14.70;99.90
26583;DHT22;14230;45.382;10.998;2022-11-03T01:34:35;14.70;99.90
26583;DHT22;14230;45.382;10.998;2022-11-03T01:37:03;14.70;99.90
26583;DHT22;14230;45.382;10.998;2022-11-03T01:39:31;14.60;99.90
26583;DHT22;14230;45.382;10.998;2022-11-03T01:41:58;14.60;99.90
26583;DHT22;14230;45.382;10.998;2022-11-03T01:44:31;14.60;99.90
26583;DHT22;14230;45.382;10.998;2022-11-03T01:52:36;14.70;99.90
26583;DHT22;14230;45.382;10.998;2022-11-03T01:55:14;14.60;99.90
26583;DHT22;14230;45.382;10.998;2022-11-03T01:57:48;14.60;99.90
26583;DHT22;14230;45.382;10.998;2022-11-03T02:00:16;14.70;99.90
26583;DHT22;14230;45.382;10.998;2022-11-03T02:02:44;14.70;99.90
26583;DHT22;14230;45.382;10.998;2022-11-03T02:05:13;14.70;99.90
26583;DHT22;14230;45.382;10.998;2022-11-03T02:07:49;14.60;99.90
26583;DHT22;14230;45.382;10.998;2022-11-03T02:10:19;14.60;99.90
26583;DHT22;14230;45.382;10.998;2022-11-03T02:12:47;14.60;99.90
26583;DHT22;14230;45.382;10.998;2022-11-03T02:15:16;14.60;99.90
26583;DHT22;14230;45.382;10.998;2022-11-03T02:17:46;14.60;99.90
26583;DHT22;14230;45.382;10.998;2022-11-03T02:20:23;14.60;99.90
26583;DHT22;14230;45.382;10.998;2022-11-03T02:28:18;14.60;99.90
26583;DHT22;14230;45.382;10.998;2022-11-03T02:30:58;14.60;99.90
26583;DHT22;14230;45.382;10.998;2022-11-03T02:33:36;14.60;99.90
26583;DHT22;14230;45.382;10.998;2022-11-03T02:36:15;14.60;99.90
26583;DHT22;14230;45.382;10.998;2022-11-03T02:39:02;14.60;99.90
26583;DHT22;14230;45.382;10.998;2022-11-03T02:41:33;14.50;99.90
26583;DHT22;14230;45.382;10.998;2022-11-03T02:44:03;14.50;99.90
26583;DHT22;14230;45.382;10.998;2022-11-03T02:46:32;14.50;99.90
26583;DHT22;14230;45.382;10.998;2022-11-03T02:49:00;14.50;99.90
26583;DHT22;14230;45.382;10.998;2022-11-03T02:51:27;14.50;99.90
26583;DHT22;14230;45.382;10.998;2022-11-03T02:54:19;14.50;99.90
26583;DHT22;14230;45.382;10.998;2022-11-03T02:56:55;14.50;99.90
26583;DHT22;14230;45.382;10.998;2022-11-03T02:59:26;14.50;99.90
26583;DHT22;14230;45.382;10.998;2022-11-03T03:02:01;14.40;99.90
26583;DHT22;14230;45.382;10.998;2022-11-03T03:04:34;14.40;99.90
26583;DHT22;14230;45.382;10.998;2022-11-03T03:07:18;14.40;99.90
26583;DHT22;14230;45.382;10.998;2022-11-03T03:09:56;14.30;99.90
26583;DHT22;14230;45.382;10.998;2022-11-03T03:12:25;14.40;99.90
26583;DHT22;14230;45.382;10.998;2022-11-03T03:14:55;14.40;99.90
26583;DHT22;14230;45.382;10.998;2022-11-03T03:17:38;14.30;99.90
26583;DHT22;14230;45.382;10.998;2022-11-03T03:20:20;14.20;99.90
26583;DHT22;14230;45.382;10.998;2022-11-03T03:22:59;14.20;99.90
26583;DHT22;14230;45.382;10.998;2022-11-03T03:28:12;14.10;99.90
26583;DHT22;14230;45.382;10.998;2022-11-03T03:30:43;14.00;99.90
26583;DHT22;14230;45.382;10.998;2022-11-03T03:33:12;13.90;99.90
26583;DHT22;14230;45.382;10.998;2022-11-03T03:35:41;13.90;99.90
26583;DHT22;14230;45.382;10.998;2022-11-03T03:38:23;13.90;99.90
26583;DHT22;14230;45.382;10.998;2022-11-03T03:40:54;13.90;99.90
26583;DHT22;14230;45.382;10.998;2022-11-03T03:43:25;13.80;99.90
26583;DHT22;14230;45.382;10.998;2022-11-03T03:45:55;13.70;99.90
26583;DHT22;14230;45.382;10.998;2022-11-03T03:48:24;13.80;99.90
26583;DHT22;14230;45.382;10.998;2022-11-03T03:50:51;13.80;99.90
26583;DHT22;14230;45.382;10.998;2022-11-03T03:53:19;13.80;99.90
26583;DHT22;14230;45.382;10.998;2022-11-03T03:55:50;13.90;99.90
26583;DHT22;14230;45.382;10.998;2022-11-03T03:58:18;13.90;99.90
26583;DHT22;14230;45.382;10.998;2022-11-03T04:00:45;14.00;99.90
26583;DHT22;14230;45.382;10.998;2022-11-03T04:03:21;14.00;99.90
26583;DHT22;14230;45.382;10.998;2022-11-03T04:05:50;14.10;99.90
26583;DHT22;14230;45.382;10.998;2022-11-03T04:08:18;14.10;99.90
26583;DHT22;14230;45.382;10.998;2022-11-03T04:10:46;14.20;99.90
26583;DHT22;14230;45.382;10.998;2022-11-03T04:13:32;14.20;99.90
26583;DHT22;14230;45.382;10.998;2022-11-03T04:16:18;14.20;99.90
26583;DHT22;14230;45.382;10.998;2022-11-03T04:19:04;14.20;99.90
26583;DHT22;14230;45.382;10.998;2022-11-03T04:21:50;14.20;99.90
26583;DHT22;14230;45.382;10.998;2022-11-03T04:24:35;14.20;99.90
26583;DHT22;14230;45.382;10.998;2022-11-03T04:27:30;14.30;99.90
26583;DHT22;14230;45.382;10.998;2022-11-03T04:30:18;14.30;99.90
26583;DHT22;14230;45.382;10.998;2022-11-03T04:32:47;14.30;99.90
26583;DHT22;14230;45.382;10.998;2022-11-03T04:35:16;14.20;99.90
26583;DHT22;14230;45.382;10.998;2022-11-03T04:37:53;14.20;99.90
26583;DHT22;14230;45.382;10.998;2022-11-03T04:40:23;14.20;99.90
26583;DHT22;14230;45.382;10.998;2022-11-03T04:42:51;14.20;99.90
26583;DHT22;14230;45.382;10.998;2022-11-03T04:45:29;14.20;99.90
26583;DHT22;14230;45.382;10.998;2022-11-03T04:47:59;14.20;99.90
26583;DHT22;14230;45.382;10.998;2022-11-03T04:50:27;14.20;99.90
26583;DHT22;14230;45.382;10.998;2022-11-03T04:52:56;14.20;99.90
26583;DHT22;14230;45.382;10.998;2022-11-03T04:55:25;14.20;99.90
26583;DHT22;14230;45.382;10.998;2022-11-03T04:57:57;14.20;99.90
26583;DHT22;14230;45.382;10.998;2022-11-03T05:00:26;14.20;99.90
26583;DHT22;14230;45.382;10.998;2022-11-03T05:02:53;14.20;99.90
26583;DHT22;14230;45.382;10.998;2022-11-03T05:05:25;14.20;99.90
26583;DHT22;14230;45.382;10.998;2022-11-03T05:07:54;14.20;99.90
26583;DHT22;14230;45.382;10.998;2022-11-03T05:10:29;14.10;99.90
26583;DHT22;14230;45.382;10.998;2022-11-03T05:12:57;14.10;99.90
26583;DHT22;14230;45.382;10.998;2022-11-03T05:15:42;14.10;99.90
26583;DHT22;14230;45.382;10.998;2022-11-03T05:18:30;14.10;99.90
26583;DHT22;14230;45.382;10.998;2022-11-03T05:21:06;14.10;99.90
26583;DHT22;14230;45.382;10.998;2022-11-03T05:23:39;14.10;99.90
26583;DHT22;14230;45.382;10.998;2022-11-03T05:26:36;14.20;99.90
26583;DHT22;14230;45.382;10.998;2022-11-03T05:29:34;14.10;99.90
26583;DHT22;14230;45.382;10.998;2022-11-03T05:32:02;14.10;99.90
26583;DHT22;14230;45.382;10.998;2022-11-03T05:34:31;14.10;99.90
26583;DHT22;14230;45.382;10.998;2022-11-03T05:37:19;14.10;99.90
26583;DHT22;14230;45.382;10.998;2022-11-03T05:39:58;14.10;99.90
26583;DHT22;14230;45.382;10.998;2022-11-03T05:42:35;14.20;99.90
26583;DHT22;14230;45.382;10.998;2022-11-03T05:47:40;14.20;99.90
26583;DHT22;14230;45.382;10.998;2022-11-03T05:50:22;14.20;99.90
26583;DHT22;14230;45.382;10.998;2022-11-03T05:53:28;14.30;99.90
26583;DHT22;14230;45.382;10.998;2022-11-03T05:55:59;14.30;99.90
26583;DHT22;14230;45.382;10.998;2022-11-03T05:58:33;14.30;99.90
26583;DHT22;14230;45.382;10.998;2022-11-03T06:01:09;14.30;99.90
26583;DHT22;14230;45.382;10.998;2022-11-03T06:03:38;14.30;99.90
26583;DHT22;14230;45.382;10.998;2022-11-03T06:06:28;14.30;99.90
26583;DHT22;14230;45.382;10.998;2022-11-03T06:09:01;14.30;99.90
26583;DHT22;14230;45.382;10.998;2022-11-03T06:11:35;14.30;99.90
26583;DHT22;14230;45.382;10.998;2022-11-03T06:14:18;14.30;99.90
26583;DHT22;14230;45.382;10.998;2022-11-03T06:16:59;14.40;99.90
26583;DHT22;14230;45.382;10.998;2022-11-03T06:22:19;14.40;99.90
26583;DHT22;14230;45.382;10.998;2022-11-03T06:24:47;14.50;99.90
26583;DHT22;14230;45.382;10.998;2022-11-03T06:27:17;14.50;99.90
26583;DHT22;14230;45.382;10.998;2022-11-03T06:29:55;14.60;99.90
26583;DHT22;14230;45.382;10.998;2022-11-03T06:32:24;14.60;99.90
26583;DHT22;14230;45.382;10.998;2022-11-03T06:34:53;14.70;99.90
26583;DHT22;14230;45.382;10.998;2022-11-03T06:37:24;14.80;99.90
26583;DHT22;14230;45.382;10.998;2022-11-03T06:42:39;14.80;99.90
26583;DHT22;14230;45.382;10.998;2022-11-03T06:45:23;14.80;99.90
26583;DHT22;14230;45.382;10.998;2022-11-03T06:47:52;14.90;99.90
26583;DHT22;14230;45.382;10.998;2022-11-03T06:50:30;14.80;99.90
26583;DHT22;14230;45.382;10.998;2022-11-03T06:53:02;14.70;99.90
26583;DHT22;14230;45.382;10.998;2022-11-03T06:55:32;14.80;99.90
26583;DHT22;14230;45.382;10.998;2022-11-03T06:58:10;14.80;99.90
26583;DHT22;14230;45.382;10.998;2022-11-03T07:00:41;14.70;99.90
26583;DHT22;14230;45.382;10.998;2022-11-03T07:03:24;14.70;99.90
26583;DHT22;14230;45.382;10.998;2022-11-03T07:06:03;14.60;99.90
26583;DHT22;14230;45.382;10.998;2022-11-03T07:08:41;14.60;99.90
26583;DHT22;14230;45.382;10.998;2022-11-03T07:11:23;14.60;99.90
26583;DHT22;14230;45.382;10.998;2022-11-03T07:13:57;14.60;99.90
26583;DHT22;14230;45.382;10.998;2022-11-03T07:18:52;14.60;99.90
26583;DHT22;14230;45.382;10.998;2022-11-03T07:21:36;14.70;99.90
26583;DHT22;14230;45.382;10.998;2022-11-03T07:24:15;14.70;99.90
26583;DHT22;14230;45.382;10.998;2022-11-03T07:26:44;14.70;99.90
26583;DHT22;14230;45.382;10.998;2022-11-03T07:29:17;14.80;99.90
26583;DHT22;14230;45.382;10.998;2022-11-03T07:31:45;14.90;99.90
26583;DHT22;14230;45.382;10.998;2022-11-03T07:34:17;15.00;99.90
26583;DHT22;14230;45.382;10.998;2022-11-03T07:36:47;15.00;99.90
26583;DHT22;14230;45.382;10.998;2022-11-03T07:39:22;15.10;99.90
26583;DHT22;14230;45.382;10.998;2022-11-03T07:41:49;15.10;99.90
26583;DHT22;14230;45.382;10.998;2022-11-03T07:44:19;15.10;99.90
26583;DHT22;14230;45.382;10.998;2022-11-03T07:46:48;15.00;99.90
26583;DHT22;14230;45.382;10.998;2022-11-03T07:49:29;15.00;99.90
26583;DHT22;14230;45.382;10.998;2022-11-03T07:51:58;14.90;99.90
26583;DHT22;14230;45.382;10.998;2022-11-03T07:54:29;15.00;99.90
26583;DHT22;14230;45.382;10.998;2022-11-03T07:57:04;15.00;99.90
26583;DHT22;14230;45.382;10.998;2022-11-03T07:59:38;15.10;99.90
26583;DHT22;14230;45.382;10.998;2022-11-03T08:04:46;15.30;99.90
26583;DHT22;14230;45.382;10.998;2022-11-03T08:07:14;15.50;99.90
26583;DHT22;14230;45.382;10.998;2022-11-03T08:09:41;15.70;99.90
26583;DHT22;14230;45.382;10.998;2022-11-03T08:12:08;15.90;99.90
26583;DHT22;14230;45.382;10.998;2022-11-03T08:14:36;16.10;99.90
26583;DHT22;14230;45.382;10.998;2022-11-03T08:17:04;16.30;99.90
26583;DHT22;14230;45.382;10.998;2022-11-03T08:19:31;16.40;99.90
26583;DHT22;14230;45.382;10.998;2022-11-03T08:21:59;16.40;99.90
26583;DHT22;14230;45.382;10.998;2022-11-03T08:24:26;16.40;99.90
26583;DHT22;14230;45.382;10.998;2022-11-03T08:26:54;16.50;99.90
26583;DHT22;14230;45.382;10.998;2022-11-03T08:29:21;16.60;99.90
26583;DHT22;14230;45.382;10.998;2022-11-03T08:31:51;16.70;99.90
26583;DHT22;14230;45.382;10.998;2022-11-03T08:34:19;16.90;99.90
26583;DHT22;14230;45.382;10.998;2022-11-03T08:36:46;17.00;99.90
26583;DHT22;14230;45.382;10.998;2022-11-03T08:39:13;17.30;99.90
26583;DHT22;14230;45.382;10.998;2022-11-03T08:41:41;17.50;99.90
26583;DHT22;14230;45.382;10.998;2022-11-03T08:44:08;17.60;99.90
26583;DHT22;14230;45.382;10.998;2022-11-03T08:46:36;17.60;99.90
26583;DHT22;14230;45.382;10.998;2022-11-03T08:49:03;17.60;99.90
26583;DHT22;14230;45.382;10.998;2022-11-03T08:51:30;17.70;99.90
26583;DHT22;14230;45.382;10.998;2022-11-03T08:53:58;17.80;99.90
26583;DHT22;14230;45.382;10.998;2022-11-03T08:56:26;18.00;99.90
26583;DHT22;14230;45.382;10.998;2022-11-03T08:58:53;17.80;99.90
26583;DHT22;14230;45.382;10.998;2022-11-03T09:01:20;18.00;99.90
26583;DHT22;14230;45.382;10.998;2022-11-03T09:03:48;18.30;99.90
26583;DHT22;14230;45.382;10.998;2022-11-03T09:06:16;18.90;99.90
26583;DHT22;14230;45.382;10.998;2022-11-03T09:08:44;19.70;99.90
26583;DHT22;14230;45.382;10.998;2022-11-03T09:11:32;20.20;99.90
26583;DHT22;14230;45.382;10.998;2022-11-03T09:14:00;20.70;99.90
26583;DHT22;14230;45.382;10.998;2022-11-03T09:16:27;21.30;99.90
26583;DHT22;14230;45.382;10.998;2022-11-03T09:18:54;22.00;99.90
26583;DHT22;14230;45.382;10.998;2022-11-03T09:21:22;22.90;99.90
26583;DHT22;14230;45.382;10.998;2022-11-03T09:23:49;23.20;99.90
26583;DHT22;14230;45.382;10.998;2022-11-03T09:26:18;24.00;99.90
26583;DHT22;14230;45.382;10.998;2022-11-03T09:28:46;24.00;99.90
26583;DHT22;14230;45.382;10.998;2022-11-03T09:31:16;24.40;99.90
26583;DHT22;14230;45.382;10.998;2022-11-03T09:33:44;25.00;99.90
26583;DHT22;14230;45.382;10.998;2022-11-03T09:36:11;25.30;99.90
26583;DHT22;14230;45.382;10.998;2022-11-03T09:38:38;25.10;99.90
26583;DHT22;14230;45.382;10.998;2022-11-03T09:41:06;25.40;99.90
26583;DHT22;14230;45.382;10.998;2022-11-03T09:43:53;25.20;99.90
26583;DHT22;14230;45.382;10.998;2022-11-03T09:46:24;24.50;99.90
26583;DHT22;14230;45.382;10.998;2022-11-03T09:48:53;24.80;99.90
26583;DHT22;14230;45.382;10.998;2022-11-03T09:51:22;24.90;99.90
26583;DHT22;14230;45.382;10.998;2022-11-03T09:53:50;25.40;99.90
26583;DHT22;14230;45.382;10.998;2022-11-03T09:56:21;24.90;99.90
26583;DHT22;14230;45.382;10.998;2022-11-03T09:58:49;24.20;99.90
26583;DHT22;14230;45.382;10.998;2022-11-03T10:01:21;23.70;99.90
26583;DHT22;14230;45.382;10.998;2022-11-03T10:03:49;23.40;99.90
26583;DHT22;14230;45.382;10.998;2022-11-03T10:06:17;23.10;99.90
26583;DHT22;14230;45.382;10.998;2022-11-03T10:08:45;22.80;99.90
26583;DHT22;14230;45.382;10.998;2022-11-03T10:11:13;22.50;99.90
26583;DHT22;14230;45.382;10.998;2022-11-03T10:13:44;22.40;99.90
26583;DHT22;14230;45.382;10.998;2022-11-03T10:16:19;22.00;99.90
26583;DHT22;14230;45.382;10.998;2022-11-03T10:18:47;21.80;99.90
26583;DHT22;14230;45.382;10.998;2022-11-03T10:23:45;21.20;99.90
26583;DHT22;14230;45.382;10.998;2022-11-03T10:26:15;20.80;99.90
26583;DHT22;14230;45.382;10.998;2022-11-03T10:29:31;20.60;99.90
26583;DHT22;14230;45.382;10.998;2022-11-03T10:32:29;20.20;99.90
26583;DHT22;14230;45.382;10.998;2022-11-03T10:34:56;20.10;99.90
26583;DHT22;14230;45.382;10.998;2022-11-03T10:37:25;20.10;99.90
26583;DHT22;14230;45.382;10.998;2022-11-03T10:39:57;20.10;99.90
26583;DHT22;14230;45.382;10.998;2022-11-03T10:42:25;20.00;99.90
26583;DHT22;14230;45.382;10.998;2022-11-03T10:45:18;19.90;99.90
26583;DHT22;14230;45.382;10.998;2022-11-03T10:48:00;19.80;99.90
26583;DHT22;14230;45.382;10.998;2022-11-03T10:50:28;19.80;99.90
26583;DHT22;14230;45.382;10.998;2022-11-03T10:52:55;19.60;99.90
26583;DHT22;14230;45.382;10.998;2022-11-03T10:55:24;19.60;99.90
26583;DHT22;14230;45.382;10.998;2022-11-03T10:57:53;19.60;99.90
26583;DHT22;14230;45.382;10.998;2022-11-03T11:00:24;19.70;99.90
26583;DHT22;14230;45.382;10.998;2022-11-03T11:02:57;19.70;99.90
26583;DHT22;14230;45.382;10.998;2022-11-03T11:05:25;19.70;99.90
26583;DHT22;14230;45.382;10.998;2022-11-03T11:07:55;19.80;99.90
26583;DHT22;14230;45.382;10.998;2022-11-03T11:10:29;19.90;99.90
26583;DHT22;14230;45.382;10.998;2022-11-03T11:15:47;19.60;99.90
26583;DHT22;14230;45.382;10.998;2022-11-03T11:23:49;20.10;99.90
26583;DHT22;14230;45.382;10.998;2022-11-03T11:31:35;20.40;99.90
26583;DHT22;14230;45.382;10.998;2022-11-03T11:42:12;20.60;99.90
26583;DHT22;14230;45.382;10.998;2022-11-03T11:57:51;20.40;99.90
26583;DHT22;14230;45.382;10.998;2022-11-03T12:00:21;20.40;99.90
26583;DHT22;14230;45.382;10.998;2022-11-03T12:02:51;20.40;99.90
26583;DHT22;14230;45.382;10.998;2022-11-03T12:05:24;20.40;99.90
26583;DHT22;14230;45.382;10.998;2022-11-03T12:07:54;20.40;99.90
26583;DHT22;14230;45.382;10.998;2022-11-03T12:10:24;20.20;99.90
26583;DHT22;14230;45.382;10.998;2022-11-03T12:12:53;20.20;99.90
26583;DHT22;14230;45.382;10.998;2022-11-03T12:18:40;20.20;99.90
26583;DHT22;14230;45.382;10.998;2022-11-03T12:21:47;20.00;99.90
26583;DHT22;14230;45.382;10.998;2022-11-03T12:26:59;19.70;99.90
26583;DHT22;14230;45.382;10.998;2022-11-03T12:29:26;19.60;99.90
26583;DHT22;14230;45.382;10.998;2022-11-03T12:31:54;19.60;99.90
26583;DHT22;14230;45.382;10.998;2022-11-03T12:34:21;19.70;99.90
26583;DHT22;14230;45.382;10.998;2022-11-03T12:36:49;19.70;99.90
26583;DHT22;14230;45.382;10.998;2022-11-03T12:39:22;19.70;99.90
26583;DHT22;14230;45.382;10.998;2022-11-03T12:41:49;19.60;99.90
26583;DHT22;14230;45.382;10.998;2022-11-03T12:44:16;19.60;99.90
26583;DHT22;14230;45.382;10.998;2022-11-03T12:46:44;19.60;99.90
26583;DHT22;14230;45.382;10.998;2022-11-03T12:49:11;19.50;99.90
26583;DHT22;14230;45.382;10.998;2022-11-03T12:51:39;19.30;99.90
26583;DHT22;14230;45.382;10.998;2022-11-03T12:54:06;19.10;99.90
26583;DHT22;14230;45.382;10.998;2022-11-03T12:56:33;19.00;99.90
26583;DHT22;14230;45.382;10.998;2022-11-03T12:59:01;18.90;99.90
26583;DHT22;14230;45.382;10.998;2022-11-03T13:01:28;18.90;99.90
26583;DHT22;14230;45.382;10.998;2022-11-03T13:03:56;18.80;99.90
26583;DHT22;14230;45.382;10.998;2022-11-03T13:06:23;18.70;99.90
26583;DHT22;14230;45.382;10.998;2022-11-03T13:08:51;18.50;99.90
26583;DHT22;14230;45.382;10.998;2022-11-03T13:11:19;18.40;99.90
26583;DHT22;14230;45.382;10.998;2022-11-03T13:14:05;18.30;99.90
26583;DHT22;14230;45.382;10.998;2022-11-03T13:16:33;18.20;99.90
26583;DHT22;14230;45.382;10.998;2022-11-03T13:19:00;18.20;99.90
26583;DHT22;14230;45.382;10.998;2022-11-03T13:21:28;18.20;99.90
26583;DHT22;14230;45.382;10.998;2022-11-03T13:23:55;18.10;99.90
26583;DHT22;14230;45.382;10.998;2022-11-03T13:26:22;18.00;99.90
26583;DHT22;14230;45.382;10.998;2022-11-03T13:28:50;17.90;99.90
26583;DHT22;14230;45.382;10.998;2022-11-03T13:31:17;17.80;99.90
26583;DHT22;14230;45.382;10.998;2022-11-03T13:33:45;17.80;99.90
26583;DHT22;14230;45.382;10.998;2022-11-03T13:36:12;17.70;99.90
26583;DHT22;14230;45.382;10.998;2022-11-03T13:38:41;17.70;99.90
26583;DHT22;14230;45.382;10.998;2022-11-03T13:41:08;17.70;99.90
26583;DHT22;14230;45.382;10.998;2022-11-03T13:43:35;17.80;99.90
26583;DHT22;14230;45.382;10.998;2022-11-03T13:46:03;17.90;99.90
26583;DHT22;14230;45.382;10.998;2022-11-03T13:48:31;18.00;99.90
26583;DHT22;14230;45.382;10.998;2022-11-03T13:51:19;18.10;99.90
26583;DHT22;14230;45.382;10.998;2022-11-03T13:53:47;18.10;99.90
26583;DHT22;14230;45.382;10.998;2022-11-03T13:56:35;18.20;99.90
26583;DHT22;14230;45.382;10.998;2022-11-03T13:59:22;18.30;99.90
26583;DHT22;14230;45.382;10.998;2022-11-03T14:01:54;18.20;99.90
26583;DHT22;14230;45.382;10.998;2022-11-03T14:04:42;18.30;99.90
26583;DHT22;14230;45.382;10.998;2022-11-03T14:07:10;18.30;99.90
26583;DHT22;14230;45.382;10.998;2022-11-03T14:09:38;18.30;99.90
26583;DHT22;14230;45.382;10.998;2022-11-03T14:12:05;18.30;99.90
26583;DHT22;14230;45.382;10.998;2022-11-03T14:14:51;18.30;99.90
26583;DHT22;14230;45.382;10.998;2022-11-03T14:17:19;18.30;99.90
26583;DHT22;14230;45.382;10.998;2022-11-03T14:19:49;18.30;99.90
26583;DHT22;14230;45.382;10.998;2022-11-03T14:22:20;18.20;99.90
26583;DHT22;14230;45.382;10.998;2022-11-03T14:24:48;18.10;99.90
26583;DHT22;14230;45.382;10.998;2022-11-03T14:27:17;18.10;99.90
26583;DHT22;14230;45.382;10.998;2022-11-03T14:29:46;18.10;99.90
26583;DHT22;14230;45.382;10.998;2022-11-03T14:32:17;18.20;99.90
26583;DHT22;14230;45.382;10.998;2022-11-03T14:34:45;18.10;99.90
26583;DHT22;14230;45.382;10.998;2022-11-03T14:37:14;18.10;99.90
26583;DHT22;14230;45.382;10.998;2022-11-03T14:39:42;18.00;99.90
26583;DHT22;14230;45.382;10.998;2022-11-03T14:42:11;17.90;99.90
26583;DHT22;14230;45.382;10.998;2022-11-03T14:44:46;17.80;99.90
26583;DHT22;14230;45.382;10.998;2022-11-03T14:47:16;17.70;99.90
26583;DHT22;14230;45.382;10.998;2022-11-03T14:49:44;17.70;99.90
26583;DHT22;14230;45.382;10.998;2022-11-03T14:52:13;17.60;99.90
26583;DHT22;14230;45.382;10.998;2022-11-03T14:54:41;17.60;99.90
26583;DHT22;14230;45.382;10.998;2022-11-03T14:57:09;17.60;99.90
26583;DHT22;14230;45.382;10.998;2022-11-03T14:59:37;17.50;99.90
26583;DHT22;14230;45.382;10.998;2022-11-03T15:02:04;17.30;99.90
26583;DHT22;14230;45.382;10.998;2022-11-03T15:04:32;17.30;99.90
26583;DHT22;14230;45.382;10.998;2022-11-03T15:07:03;17.30;99.90
26583;DHT22;14230;45.382;10.998;2022-11-03T15:09:30;17.20;99.90
26583;DHT22;14230;45.382;10.998;2022-11-03T15:12:02;17.20;99.90
26583;DHT22;14230;45.382;10.998;2022-11-03T15:14:32;17.10;99.90
26583;DHT22;14230;45.382;10.998;2022-11-03T15:17:00;17.10;99.90
26583;DHT22;14230;45.382;10.998;2022-11-03T15:19:27;17.10;99.90
26583;DHT22;14230;45.382;10.998;2022-11-03T15:21:55;17.00;99.90
26583;DHT22;14230;45.382;10.998;2022-11-03T15:24:22;17.00;99.90
26583;DHT22;14230;45.382;10.998;2022-11-03T15:27:11;16.90;99.90
26583;DHT22;14230;45.382;10.998;2022-11-03T15:29:39;16.90;99.90
26583;DHT22;14230;45.382;10.998;2022-11-03T15:32:06;16.90;99.90
26583;DHT22;14230;45.382;10.998;2022-11-03T15:34:33;16.80;99.90
26583;DHT22;14230;45.382;10.998;2022-11-03T15:37:01;16.80;99.90
26583;DHT22;14230;45.382;10.998;2022-11-03T15:39:28;16.70;99.90
26583;DHT22;14230;45.382;10.998;2022-11-03T15:41:56;16.70;99.90
26583;DHT22;14230;45.382;10.998;2022-11-03T15:44:23;16.60;99.90
26583;DHT22;14230;45.382;10.998;2022-11-03T15:46:51;16.60;99.90
26583;DHT22;14230;45.382;10.998;2022-11-03T15:49:18;16.50;99.90
26583;DHT22;14230;45.382;10.998;2022-11-03T15:51:45;16.40;99.90
26583;DHT22;14230;45.382;10.998;2022-11-03T15:54:13;16.40;99.90
26583;DHT22;14230;45.382;10.998;2022-11-03T15:56:40;16.30;99.90
26583;DHT22;14230;45.382;10.998;2022-11-03T15:59:07;16.20;99.90
26583;DHT22;14230;45.382;10.998;2022-11-03T16:01:35;16.10;99.90
26583;DHT22;14230;45.382;10.998;2022-11-03T16:04:02;16.10;99.90
26583;DHT22;14230;45.382;10.998;2022-11-03T16:06:30;16.10;99.90
26583;DHT22;14230;45.382;10.998;2022-11-03T16:09:17;16.10;99.90
26583;DHT22;14230;45.382;10.998;2022-11-03T16:11:44;16.00;99.90
26583;DHT22;14230;45.382;10.998;2022-11-03T16:14:12;16.10;99.90
26583;DHT22;14230;45.382;10.998;2022-11-03T16:16:39;16.10;99.90
26583;DHT22;14230;45.382;10.998;2022-11-03T16:19:07;16.10;99.90
26583;DHT22;14230;45.382;10.998;2022-11-03T16:21:36;16.10;99.90
26583;DHT22;14230;45.382;10.998;2022-11-03T16:24:03;16.10;99.90
26583;DHT22;14230;45.382;10.998;2022-11-03T16:26:31;16.10;99.90
26583;DHT22;14230;45.382;10.998;2022-11-03T16:28:59;16.00;99.90
26583;DHT22;14230;45.382;10.998;2022-11-03T16:31:27;16.00;99.90
26583;DHT22;14230;45.382;10.998;2022-11-03T16:33:54;16.00;99.90
26583;DHT22;14230;45.382;10.998;2022-11-03T16:36:22;16.00;99.90
26583;DHT22;14230;45.382;10.998;2022-11-03T16:38:49;16.00;99.90
26583;DHT22;14230;45.382;10.998;2022-11-03T16:41:17;15.90;99.90
26583;DHT22;14230;45.382;10.998;2022-11-03T16:43:44;15.90;99.90
26583;DHT22;14230;45.382;10.998;2022-11-03T16:46:14;15.80;99.90
26583;DHT22;14230;45.382;10.998;2022-11-03T16:48:41;15.80;99.90
26583;DHT22;14230;45.382;10.998;2022-11-03T16:51:09;15.80;99.90
26583;DHT22;14230;45.382;10.998;2022-11-03T16:53:36;15.70;99.90
26583;DHT22;14230;45.382;10.998;2022-11-03T16:56:04;15.70;99.90